KIWI

Wiscasset Airport

Wiscasset, Maine, USA
METAR KIWI 150317Z AUTO 07003KT 3/4SM BR VV002 22/21 A2986 RMK AO2 T02170206
Observed Flight Rules
Aug-15 @ 03:17 UTC (19 minutes ago) Instrument Flight Rules
Wind Visibility Clouds Conditions
70° at 3 knots 3/4 miles
  • Vertical visibility at 200' AGL
  • Mist
Temperatures Readings
Current 22°C / 72°F
Dewpoint 21°C / 70°F
Humidity 94%
Altimeter 29.86" Hg
Pressure 1011 hPa
Elevation 20
METAR KIWI 150317Z AUTO 07003KT 3/4SM BR VV002 22/21 A2986 RMK AO2 T02170206
Observed Flight Rules
Aug-15 @ 03:17 UTC
(19 minutes ago)
LIFR
Wind Visibility
70° at 3 knots 3/4 miles
Clouds
  • Vertical visibility at 200' AGL
Conditions
  • Mist
Temperature Dewpoint
22°C / 72°F 21°C / 70°F
Humidity Altimeter Pressure
94% 29.86" Hg 1011 hPa